sensor_id;sensor_type;location;lat;lon;timestamp;temperature;humidity
6256;DHT22;3161;48.794;9.784;2023-05-02T00:02:26;11.30;99.90
6256;DHT22;3161;48.794;9.784;2023-05-02T00:04:54;11.20;99.90
6256;DHT22;3161;48.794;9.784;2023-05-02T00:07:22;11.20;99.90
6256;DHT22;3161;48.794;9.784;2023-05-02T00:09:50;11.20;99.90
6256;DHT22;3161;48.794;9.784;2023-05-02T00:12:18;11.20;99.90
6256;DHT22;3161;48.794;9.784;2023-05-02T00:14:45;11.10;99.90
6256;DHT22;3161;48.794;9.784;2023-05-02T00:17:18;11.10;99.90
6256;DHT22;3161;48.794;9.784;2023-05-02T00:19:46;11.10;99.90
6256;DHT22;3161;48.794;9.784;2023-05-02T00:22:14;11.10;99.90
6256;DHT22;3161;48.794;9.784;2023-05-02T00:24:42;11.00;99.90
6256;DHT22;3161;48.794;9.784;2023-05-02T00:27:09;11.00;99.90
6256;DHT22;3161;48.794;9.784;2023-05-02T00:29:37;10.90;99.90
6256;DHT22;3161;48.794;9.784;2023-05-02T00:32:05;11.00;99.90
6256;DHT22;3161;48.794;9.784;2023-05-02T00:34:33;10.90;99.90
6256;DHT22;3161;48.794;9.784;2023-05-02T00:37:00;10.90;99.90
6256;DHT22;3161;48.794;9.784;2023-05-02T00:39:28;10.90;99.90
6256;DHT22;3161;48.794;9.784;2023-05-02T00:41:57;10.90;99.90
6256;DHT22;3161;48.794;9.784;2023-05-02T00:44:25;10.90;99.90
6256;DHT22;3161;48.794;9.784;2023-05-02T00:46:57;10.80;99.90
6256;DHT22;3161;48.794;9.784;2023-05-02T00:49:22;10.80;99.90
6256;DHT22;3161;48.794;9.784;2023-05-02T00:51:49;10.80;99.90
6256;DHT22;3161;48.794;9.784;2023-05-02T00:54:17;10.80;99.90
6256;DHT22;3161;48.794;9.784;2023-05-02T00:56:44;10.70;99.90
6256;DHT22;3161;48.794;9.784;2023-05-02T00:59:13;10.70;99.90
6256;DHT22;3161;48.794;9.784;2023-05-02T01:10:29;10.60;99.90
6256;DHT22;3161;48.794;9.784;2023-05-02T01:15:45;10.50;99.90
6256;DHT22;3161;48.794;9.784;2023-05-02T01:18:15;10.50;99.90
6256;DHT22;3161;48.794;9.784;2023-05-02T01:20:45;10.50;99.90
6256;DHT22;3161;48.794;9.784;2023-05-02T01:23:24;10.50;99.90
6256;DHT22;3161;48.794;9.784;2023-05-02T01:28:56;10.50;99.90
6256;DHT22;3161;48.794;9.784;2023-05-02T01:31:25;10.50;99.90
6256;DHT22;3161;48.794;9.784;2023-05-02T01:33:54;10.40;99.90
6256;DHT22;3161;48.794;9.784;2023-05-02T01:36:24;10.40;99.90
6256;DHT22;3161;48.794;9.784;2023-05-02T01:38:55;10.40;99.90
6256;DHT22;3161;48.794;9.784;2023-05-02T01:41:27;10.40;99.90
6256;DHT22;3161;48.794;9.784;2023-05-02T01:43:57;10.40;99.90
6256;DHT22;3161;48.794;9.784;2023-05-02T01:46:33;10.40;99.90
6256;DHT22;3161;48.794;9.784;2023-05-02T01:49:04;10.30;99.90
6256;DHT22;3161;48.794;9.784;2023-05-02T01:51:34;10.30;99.90
6256;DHT22;3161;48.794;9.784;2023-05-02T01:54:04;10.30;99.90
6256;DHT22;3161;48.794;9.784;2023-05-02T01:56:34;10.20;99.90
6256;DHT22;3161;48.794;9.784;2023-05-02T01:59:05;10.30;99.90
6256;DHT22;3161;48.794;9.784;2023-05-02T02:01:35;10.20;99.90
6256;DHT22;3161;48.794;9.784;2023-05-02T02:04:10;10.20;99.90
6256;DHT22;3161;48.794;9.784;2023-05-02T02:06:38;10.10;99.90
6256;DHT22;3161;48.794;9.784;2023-05-02T02:09:08;10.10;99.90
6256;DHT22;3161;48.794;9.784;2023-05-02T02:11:42;10.10;99.90
6256;DHT22;3161;48.794;9.784;2023-05-02T02:14:13;10.10;99.90
6256;DHT22;3161;48.794;9.784;2023-05-02T02:16:41;10.10;99.90
6256;DHT22;3161;48.794;9.784;2023-05-02T02:19:12;10.00;99.90
6256;DHT22;3161;48.794;9.784;2023-05-02T02:21:42;10.00;99.90
6256;DHT22;3161;48.794;9.784;2023-05-02T02:24:11;10.00;99.90
6256;DHT22;3161;48.794;9.784;2023-05-02T02:26:39;10.00;99.90
6256;DHT22;3161;48.794;9.784;2023-05-02T02:29:08;10.00;99.90
6256;DHT22;3161;48.794;9.784;2023-05-02T02:31:35;10.00;99.90
6256;DHT22;3161;48.794;9.784;2023-05-02T02:34:05;9.90;99.90
6256;DHT22;3161;48.794;9.784;2023-05-02T02:42:19;9.90;99.90
6256;DHT22;3161;48.794;9.784;2023-05-02T02:50:19;9.80;99.90
6256;DHT22;3161;48.794;9.784;2023-05-02T02:52:59;9.80;99.90
6256;DHT22;3161;48.794;9.784;2023-05-02T02:55:30;9.80;99.90
6256;DHT22;3161;48.794;9.784;2023-05-02T02:58:14;9.70;99.90
6256;DHT22;3161;48.794;9.784;2023-05-02T03:00:37;9.70;99.90
6256;DHT22;3161;48.794;9.784;2023-05-02T03:03:06;9.70;99.90
6256;DHT22;3161;48.794;9.784;2023-05-02T03:05:35;9.70;99.90
6256;DHT22;3161;48.794;9.784;2023-05-02T03:08:03;9.70;99.90
6256;DHT22;3161;48.794;9.784;2023-05-02T03:10:30;9.70;99.90
6256;DHT22;3161;48.794;9.784;2023-05-02T03:12:59;9.70;99.90
6256;DHT22;3161;48.794;9.784;2023-05-02T03:18:23;9.60;99.90
6256;DHT22;3161;48.794;9.784;2023-05-02T03:20:50;9.60;99.90
6256;DHT22;3161;48.794;9.784;2023-05-02T03:23:18;9.70;99.90
6256;DHT22;3161;48.794;9.784;2023-05-02T03:25:45;9.60;99.90
6256;DHT22;3161;48.794;9.784;2023-05-02T03:28:13;9.60;99.90
6256;DHT22;3161;48.794;9.784;2023-05-02T03:30:40;9.70;99.90
6256;DHT22;3161;48.794;9.784;2023-05-02T03:33:08;9.70;99.90
6256;DHT22;3161;48.794;9.784;2023-05-02T03:35:35;9.70;99.90
6256;DHT22;3161;48.794;9.784;2023-05-02T03:38:03;9.70;99.90
6256;DHT22;3161;48.794;9.784;2023-05-02T03:40:30;9.70;99.90
6256;DHT22;3161;48.794;9.784;2023-05-02T03:42:58;9.70;99.90
6256;DHT22;3161;48.794;9.784;2023-05-02T03:45:25;9.70;99.90
6256;DHT22;3161;48.794;9.784;2023-05-02T03:47:53;9.80;99.90
6256;DHT22;3161;48.794;9.784;2023-05-02T03:50:20;9.80;99.90
6256;DHT22;3161;48.794;9.784;2023-05-02T03:52:48;9.80;99.90
6256;DHT22;3161;48.794;9.784;2023-05-02T03:55:15;9.80;99.90
6256;DHT22;3161;48.794;9.784;2023-05-02T03:57:43;9.90;99.90
6256;DHT22;3161;48.794;9.784;2023-05-02T04:00:11;9.90;99.90
6256;DHT22;3161;48.794;9.784;2023-05-02T04:02:39;10.00;99.90
6256;DHT22;3161;48.794;9.784;2023-05-02T04:05:07;10.00;99.90
6256;DHT22;3161;48.794;9.784;2023-05-02T04:07:34;10.00;99.90
6256;DHT22;3161;48.794;9.784;2023-05-02T04:10:02;10.00;99.90
6256;DHT22;3161;48.794;9.784;2023-05-02T04:12:30;10.10;99.90
6256;DHT22;3161;48.794;9.784;2023-05-02T04:14:57;10.10;99.90
6256;DHT22;3161;48.794;9.784;2023-05-02T04:17:25;10.20;99.90
6256;DHT22;3161;48.794;9.784;2023-05-02T04:19:52;10.20;99.90
6256;DHT22;3161;48.794;9.784;2023-05-02T04:22:20;10.10;99.90
6256;DHT22;3161;48.794;9.784;2023-05-02T04:24:47;10.20;99.90
6256;DHT22;3161;48.794;9.784;2023-05-02T04:27:15;10.20;99.90
6256;DHT22;3161;48.794;9.784;2023-05-02T04:29:42;10.20;99.90
6256;DHT22;3161;48.794;9.784;2023-05-02T04:32:10;10.30;99.90
6256;DHT22;3161;48.794;9.784;2023-05-02T04:34:38;10.30;99.90
6256;DHT22;3161;48.794;9.784;2023-05-02T04:37:05;10.40;99.90
6256;DHT22;3161;48.794;9.784;2023-05-02T04:39:33;10.40;99.90
6256;DHT22;3161;48.794;9.784;2023-05-02T04:42:02;10.40;99.90
6256;DHT22;3161;48.794;9.784;2023-05-02T04:44:30;10.40;99.90
6256;DHT22;3161;48.794;9.784;2023-05-02T04:46:57;10.40;99.90
6256;DHT22;3161;48.794;9.784;2023-05-02T04:49:24;10.40;99.90
6256;DHT22;3161;48.794;9.784;2023-05-02T04:51:52;10.40;99.90
6256;DHT22;3161;48.794;9.784;2023-05-02T04:54:20;10.40;99.90
6256;DHT22;3161;48.794;9.784;2023-05-02T04:56:47;10.40;99.90
6256;DHT22;3161;48.794;9.784;2023-05-02T04:59:15;10.40;99.90
6256;DHT22;3161;48.794;9.784;2023-05-02T05:01:43;10.40;99.90
6256;DHT22;3161;48.794;9.784;2023-05-02T05:04:11;10.40;99.90
6256;DHT22;3161;48.794;9.784;2023-05-02T05:06:38;10.40;99.90
6256;DHT22;3161;48.794;9.784;2023-05-02T05:09:06;10.40;99.90
6256;DHT22;3161;48.794;9.784;2023-05-02T05:11:34;10.40;99.90
6256;DHT22;3161;48.794;9.784;2023-05-02T05:14:01;10.50;99.90
6256;DHT22;3161;48.794;9.784;2023-05-02T05:16:29;10.50;99.90
6256;DHT22;3161;48.794;9.784;2023-05-02T05:18:57;10.50;99.90
6256;DHT22;3161;48.794;9.784;2023-05-02T05:21:24;10.50;99.90
6256;DHT22;3161;48.794;9.784;2023-05-02T05:23:52;10.60;99.90
6256;DHT22;3161;48.794;9.784;2023-05-02T05:26:20;10.60;99.90
6256;DHT22;3161;48.794;9.784;2023-05-02T05:28:49;10.60;99.90
6256;DHT22;3161;48.794;9.784;2023-05-02T05:31:17;10.60;99.90
6256;DHT22;3161;48.794;9.784;2023-05-02T05:33:44;10.60;99.90
6256;DHT22;3161;48.794;9.784;2023-05-02T05:36:12;10.60;99.90
6256;DHT22;3161;48.794;9.784;2023-05-02T05:38:41;10.70;99.90
6256;DHT22;3161;48.794;9.784;2023-05-02T05:41:08;10.70;99.90
6256;DHT22;3161;48.794;9.784;2023-05-02T05:43:36;10.80;99.90
6256;DHT22;3161;48.794;9.784;2023-05-02T05:46:04;10.80;99.90
6256;DHT22;3161;48.794;9.784;2023-05-02T05:48:31;10.90;99.90
6256;DHT22;3161;48.794;9.784;2023-05-02T05:51:04;10.90;99.90
6256;DHT22;3161;48.794;9.784;2023-05-02T05:53:32;10.90;99.90
6256;DHT22;3161;48.794;9.784;2023-05-02T05:56:11;10.90;99.90
6256;DHT22;3161;48.794;9.784;2023-05-02T05:58:39;10.90;99.90
6256;DHT22;3161;48.794;9.784;2023-05-02T06:01:08;11.00;99.90
6256;DHT22;3161;48.794;9.784;2023-05-02T06:03:36;11.10;99.90
6256;DHT22;3161;48.794;9.784;2023-05-02T06:06:04;11.20;99.90
6256;DHT22;3161;48.794;9.784;2023-05-02T06:08:31;11.30;99.90
6256;DHT22;3161;48.794;9.784;2023-05-02T06:10:59;11.30;99.90
6256;DHT22;3161;48.794;9.784;2023-05-02T06:13:26;11.40;99.90
6256;DHT22;3161;48.794;9.784;2023-05-02T06:15:54;11.40;99.90
6256;DHT22;3161;48.794;9.784;2023-05-02T06:18:21;11.40;99.90
6256;DHT22;3161;48.794;9.784;2023-05-02T06:20:49;11.50;99.90
6256;DHT22;3161;48.794;9.784;2023-05-02T06:23:16;11.50;99.90
6256;DHT22;3161;48.794;9.784;2023-05-02T06:25:44;11.50;99.90
6256;DHT22;3161;48.794;9.784;2023-05-02T06:28:12;11.50;99.90
6256;DHT22;3161;48.794;9.784;2023-05-02T06:30:39;11.60;99.90
6256;DHT22;3161;48.794;9.784;2023-05-02T06:33:06;11.60;99.90
6256;DHT22;3161;48.794;9.784;2023-05-02T06:35:34;11.70;99.90
6256;DHT22;3161;48.794;9.784;2023-05-02T06:38:01;11.70;99.90
6256;DHT22;3161;48.794;9.784;2023-05-02T06:40:29;11.70;99.90
6256;DHT22;3161;48.794;9.784;2023-05-02T06:42:56;11.70;99.90
6256;DHT22;3161;48.794;9.784;2023-05-02T06:45:24;11.70;99.90
6256;DHT22;3161;48.794;9.784;2023-05-02T06:47:51;11.10;99.90
6256;DHT22;3161;48.794;9.784;2023-05-02T06:50:19;11.80;99.90
6256;DHT22;3161;48.794;9.784;2023-05-02T06:52:47;11.80;99.90
6256;DHT22;3161;48.794;9.784;2023-05-02T06:55:14;11.80;99.90
6256;DHT22;3161;48.794;9.784;2023-05-02T06:57:42;11.90;99.90
6256;DHT22;3161;48.794;9.784;2023-05-02T07:00:11;11.90;99.90
6256;DHT22;3161;48.794;9.784;2023-05-02T07:02:38;11.90;99.90
6256;DHT22;3161;48.794;9.784;2023-05-02T07:05:06;12.00;99.90
6256;DHT22;3161;48.794;9.784;2023-05-02T07:07:34;11.90;99.90
6256;DHT22;3161;48.794;9.784;2023-05-02T07:10:02;11.90;99.90
6256;DHT22;3161;48.794;9.784;2023-05-02T07:12:30;11.90;99.90
6256;DHT22;3161;48.794;9.784;2023-05-02T07:14:58;11.90;99.90
6256;DHT22;3161;48.794;9.784;2023-05-02T07:17:26;12.00;99.90
6256;DHT22;3161;48.794;9.784;2023-05-02T07:19:53;12.10;99.90
6256;DHT22;3161;48.794;9.784;2023-05-02T07:22:22;12.10;99.90
6256;DHT22;3161;48.794;9.784;2023-05-02T07:25:01;12.20;99.90
6256;DHT22;3161;48.794;9.784;2023-05-02T07:27:26;12.30;99.90
6256;DHT22;3161;48.794;9.784;2023-05-02T07:29:53;12.40;99.90
6256;DHT22;3161;48.794;9.784;2023-05-02T07:32:23;12.50;99.90
6256;DHT22;3161;48.794;9.784;2023-05-02T07:34:53;12.60;99.90
6256;DHT22;3161;48.794;9.784;2023-05-02T07:37:21;12.60;99.90
6256;DHT22;3161;48.794;9.784;2023-05-02T07:39:49;12.70;99.90
6256;DHT22;3161;48.794;9.784;2023-05-02T07:42:17;12.70;99.90
6256;DHT22;3161;48.794;9.784;2023-05-02T07:44:44;12.70;99.90
6256;DHT22;3161;48.794;9.784;2023-05-02T07:47:11;12.60;99.90
6256;DHT22;3161;48.794;9.784;2023-05-02T07:49:39;12.60;99.90
6256;DHT22;3161;48.794;9.784;2023-05-02T07:52:06;12.70;99.90
6256;DHT22;3161;48.794;9.784;2023-05-02T07:54:34;12.70;99.90
6256;DHT22;3161;48.794;9.784;2023-05-02T07:57:02;12.70;99.90
6256;DHT22;3161;48.794;9.784;2023-05-02T07:59:30;12.80;99.90
6256;DHT22;3161;48.794;9.784;2023-05-02T08:01:58;12.80;99.90
6256;DHT22;3161;48.794;9.784;2023-05-02T08:04:26;12.90;99.90
6256;DHT22;3161;48.794;9.784;2023-05-02T08:06:54;12.90;99.90
6256;DHT22;3161;48.794;9.784;2023-05-02T08:09:21;13.00;99.90
6256;DHT22;3161;48.794;9.784;2023-05-02T08:11:50;13.00;99.90
6256;DHT22;3161;48.794;9.784;2023-05-02T08:14:18;13.10;99.90
6256;DHT22;3161;48.794;9.784;2023-05-02T08:16:45;13.10;99.90
6256;DHT22;3161;48.794;9.784;2023-05-02T08:19:13;13.20;99.90
6256;DHT22;3161;48.794;9.784;2023-05-02T08:21:41;13.20;99.90
6256;DHT22;3161;48.794;9.784;2023-05-02T08:24:09;13.20;99.90
6256;DHT22;3161;48.794;9.784;2023-05-02T08:26:37;13.30;99.90
6256;DHT22;3161;48.794;9.784;2023-05-02T08:29:04;13.40;99.90
6256;DHT22;3161;48.794;9.784;2023-05-02T08:31:32;13.50;99.90
6256;DHT22;3161;48.794;9.784;2023-05-02T08:33:59;13.50;99.90
6256;DHT22;3161;48.794;9.784;2023-05-02T08:36:26;13.60;99.90
6256;DHT22;3161;48.794;9.784;2023-05-02T08:38:54;13.60;99.90
6256;DHT22;3161;48.794;9.784;2023-05-02T08:41:22;13.70;99.90
6256;DHT22;3161;48.794;9.784;2023-05-02T08:43:50;13.80;99.90
6256;DHT22;3161;48.794;9.784;2023-05-02T08:46:18;13.80;99.90
6256;DHT22;3161;48.794;9.784;2023-05-02T08:48:48;13.90;99.90
6256;DHT22;3161;48.794;9.784;2023-05-02T08:51:17;13.90;99.90
6256;DHT22;3161;48.794;9.784;2023-05-02T08:53:45;14.00;99.90
6256;DHT22;3161;48.794;9.784;2023-05-02T08:56:13;14.10;99.90
6256;DHT22;3161;48.794;9.784;2023-05-02T08:58:41;14.20;99.90
6256;DHT22;3161;48.794;9.784;2023-05-02T09:01:12;14.30;99.90
6256;DHT22;3161;48.794;9.784;2023-05-02T09:03:39;14.30;99.90
6256;DHT22;3161;48.794;9.784;2023-05-02T09:06:20;14.30;99.90
6256;DHT22;3161;48.794;9.784;2023-05-02T09:08:50;14.30;99.90
6256;DHT22;3161;48.794;9.784;2023-05-02T09:11:15;14.30;99.90
6256;DHT22;3161;48.794;9.784;2023-05-02T09:13:45;14.40;99.90
6256;DHT22;3161;48.794;9.784;2023-05-02T09:16:21;14.50;99.90
6256;DHT22;3161;48.794;9.784;2023-05-02T09:18:51;14.50;99.90
6256;DHT22;3161;48.794;9.784;2023-05-02T09:21:20;14.70;99.90
6256;DHT22;3161;48.794;9.784;2023-05-02T09:23:49;14.80;99.90
6256;DHT22;3161;48.794;9.784;2023-05-02T09:26:21;14.80;99.90
6256;DHT22;3161;48.794;9.784;2023-05-02T09:28:56;15.00;99.90
6256;DHT22;3161;48.794;9.784;2023-05-02T09:31:25;15.10;99.90
6256;DHT22;3161;48.794;9.784;2023-05-02T09:33:53;15.30;99.90
6256;DHT22;3161;48.794;9.784;2023-05-02T09:36:21;15.40;99.90
6256;DHT22;3161;48.794;9.784;2023-05-02T09:38:49;15.50;99.90
6256;DHT22;3161;48.794;9.784;2023-05-02T09:41:17;15.60;99.90
6256;DHT22;3161;48.794;9.784;2023-05-02T09:43:57;15.60;99.90
6256;DHT22;3161;48.794;9.784;2023-05-02T09:46:17;15.70;99.90
6256;DHT22;3161;48.794;9.784;2023-05-02T09:48:55;15.70;99.90
6256;DHT22;3161;48.794;9.784;2023-05-02T09:51:25;15.70;99.90
6256;DHT22;3161;48.794;9.784;2023-05-02T09:53:54;15.70;99.90
6256;DHT22;3161;48.794;9.784;2023-05-02T09:56:21;15.80;99.90
6256;DHT22;3161;48.794;9.784;2023-05-02T09:58:49;15.90;99.90
6256;DHT22;3161;48.794;9.784;2023-05-02T10:01:17;16.00;99.90
6256;DHT22;3161;48.794;9.784;2023-05-02T10:03:48;16.10;99.90
6256;DHT22;3161;48.794;9.784;2023-05-02T10:06:17;16.20;99.90
6256;DHT22;3161;48.794;9.784;2023-05-02T10:08:45;16.30;99.90
6256;DHT22;3161;48.794;9.784;2023-05-02T10:11:13;16.40;99.90
6256;DHT22;3161;48.794;9.784;2023-05-02T10:13:42;16.50;99.90
6256;DHT22;3161;48.794;9.784;2023-05-02T10:16:12;16.70;99.90
6256;DHT22;3161;48.794;9.784;2023-05-02T10:19:09;16.80;99.90
6256;DHT22;3161;48.794;9.784;2023-05-02T10:21:39;16.90;99.90
6256;DHT22;3161;48.794;9.784;2023-05-02T10:24:08;16.90;99.90
6256;DHT22;3161;48.794;9.784;2023-05-02T10:26:36;16.90;99.90
6256;DHT22;3161;48.794;9.784;2023-05-02T10:29:09;17.00;99.90
6256;DHT22;3161;48.794;9.784;2023-05-02T10:31:37;17.20;99.90
6256;DHT22;3161;48.794;9.784;2023-05-02T10:34:07;17.40;99.90
6256;DHT22;3161;48.794;9.784;2023-05-02T10:36:36;17.50;99.90
6256;DHT22;3161;48.794;9.784;2023-05-02T10:39:04;17.60;99.90
6256;DHT22;3161;48.794;9.784;2023-05-02T10:41:33;17.80;99.90
6256;DHT22;3161;48.794;9.784;2023-05-02T10:44:01;17.90;99.90
6256;DHT22;3161;48.794;9.784;2023-05-02T10:46:33;18.00;99.90
6256;DHT22;3161;48.794;9.784;2023-05-02T10:49:09;18.10;99.90
6256;DHT22;3161;48.794;9.784;2023-05-02T10:51:42;18.40;99.90
6256;DHT22;3161;48.794;9.784;2023-05-02T10:54:23;18.70;99.90
6256;DHT22;3161;48.794;9.784;2023-05-02T10:59:43;19.00;99.90
6256;DHT22;3161;48.794;9.784;2023-05-02T11:05:06;18.90;99.90
6256;DHT22;3161;48.794;9.784;2023-05-02T11:07:35;18.90;99.90
6256;DHT22;3161;48.794;9.784;2023-05-02T11:12:47;19.20;99.90
6256;DHT22;3161;48.794;9.784;2023-05-02T11:18:02;19.40;99.90
6256;DHT22;3161;48.794;9.784;2023-05-02T11:20:36;19.70;99.90
6256;DHT22;3161;48.794;9.784;2023-05-02T11:23:20;19.90;99.90
6256;DHT22;3161;48.794;9.784;2023-05-02T11:25:52;19.90;99.90
6256;DHT22;3161;48.794;9.784;2023-05-02T11:31:08;19.90;99.90
6256;DHT22;3161;48.794;9.784;2023-05-02T11:33:36;19.80;99.90
6256;DHT22;3161;48.794;9.784;2023-05-02T11:36:04;19.70;99.90
6256;DHT22;3161;48.794;9.784;2023-05-02T11:38:36;19.60;99.90
6256;DHT22;3161;48.794;9.784;2023-05-02T11:41:04;19.50;99.90
6256;DHT22;3161;48.794;9.784;2023-05-02T11:43:39;19.30;99.90
6256;DHT22;3161;48.794;9.784;2023-05-02T11:46:07;19.10;99.90
6256;DHT22;3161;48.794;9.784;2023-05-02T11:48:35;18.80;99.90
6256;DHT22;3161;48.794;9.784;2023-05-02T11:51:02;18.50;99.90
6256;DHT22;3161;48.794;9.784;2023-05-02T11:53:32;18.40;99.90
6256;DHT22;3161;48.794;9.784;2023-05-02T11:56:02;18.20;99.90
6256;DHT22;3161;48.794;9.784;2023-05-02T11:58:31;18.10;99.90
6256;DHT22;3161;48.794;9.784;2023-05-02T12:01:10;18.10;99.90
6256;DHT22;3161;48.794;9.784;2023-05-02T12:03:38;18.10;99.90
6256;DHT22;3161;48.794;9.784;2023-05-02T12:06:11;18.20;99.90
6256;DHT22;3161;48.794;9.784;2023-05-02T12:08:41;18.40;99.90
6256;DHT22;3161;48.794;9.784;2023-05-02T12:11:09;18.80;99.90
6256;DHT22;3161;48.794;9.784;2023-05-02T12:13:48;19.20;99.90
6256;DHT22;3161;48.794;9.784;2023-05-02T12:16:08;19.70;99.90
6256;DHT22;3161;48.794;9.784;2023-05-02T12:18:36;20.10;99.90
6256;DHT22;3161;48.794;9.784;2023-05-02T12:21:05;20.80;99.90
6256;DHT22;3161;48.794;9.784;2023-05-02T12:23:33;21.60;99.90
6256;DHT22;3161;48.794;9.784;2023-05-02T12:26:15;21.80;99.80
6256;DHT22;3161;48.794;9.784;2023-05-02T12:28:50;21.50;98.40
6256;DHT22;3161;48.794;9.784;2023-05-02T12:31:20;21.20;98.70
6256;DHT22;3161;48.794;9.784;2023-05-02T12:33:48;20.80;98.40
6256;DHT22;3161;48.794;9.784;2023-05-02T12:36:18;20.60;99.80
6256;DHT22;3161;48.794;9.784;2023-05-02T12:38:56;20.30;99.90
6256;DHT22;3161;48.794;9.784;2023-05-02T12:41:37;20.10;99.90
6256;DHT22;3161;48.794;9.784;2023-05-02T12:44:06;19.70;99.90
6256;DHT22;3161;48.794;9.784;2023-05-02T12:46:34;19.50;99.90
6256;DHT22;3161;48.794;9.784;2023-05-02T12:49:04;19.30;99.90
6256;DHT22;3161;48.794;9.784;2023-05-02T12:51:33;19.10;99.90
6256;DHT22;3161;48.794;9.784;2023-05-02T12:54:02;18.90;99.90
6256;DHT22;3161;48.794;9.784;2023-05-02T12:56:37;18.70;99.90
6256;DHT22;3161;48.794;9.784;2023-05-02T12:59:00;18.60;99.90
6256;DHT22;3161;48.794;9.784;2023-05-02T13:01:29;18.50;99.90
6256;DHT22;3161;48.794;9.784;2023-05-02T13:03:57;18.40;99.90
6256;DHT22;3161;48.794;9.784;2023-05-02T13:06:24;18.20;99.90
6256;DHT22;3161;48.794;9.784;2023-05-02T13:08:52;18.00;99.90
6256;DHT22;3161;48.794;9.784;2023-05-02T13:11:19;17.80;99.90
6256;DHT22;3161;48.794;9.784;2023-05-02T13:13:47;17.70;99.90
6256;DHT22;3161;48.794;9.784;2023-05-02T13:16:14;17.50;99.90
6256;DHT22;3161;48.794;9.784;2023-05-02T13:18:42;17.40;99.90
6256;DHT22;3161;48.794;9.784;2023-05-02T13:21:10;17.10;99.90
6256;DHT22;3161;48.794;9.784;2023-05-02T13:23:56;17.10;99.90
6256;DHT22;3161;48.794;9.784;2023-05-02T13:26:24;16.90;99.90
6256;DHT22;3161;48.794;9.784;2023-05-02T13:28:51;16.90;99.90
6256;DHT22;3161;48.794;9.784;2023-05-02T13:31:19;16.80;99.90
6256;DHT22;3161;48.794;9.784;2023-05-02T13:33:47;16.80;99.90
6256;DHT22;3161;48.794;9.784;2023-05-02T13:36:15;16.80;99.90
6256;DHT22;3161;48.794;9.784;2023-05-02T13:38:42;16.80;99.90
6256;DHT22;3161;48.794;9.784;2023-05-02T13:41:10;16.80;99.90
6256;DHT22;3161;48.794;9.784;2023-05-02T13:43:37;16.70;99.90
6256;DHT22;3161;48.794;9.784;2023-05-02T13:46:06;16.70;99.90
6256;DHT22;3161;48.794;9.784;2023-05-02T13:48:33;16.70;99.90
6256;DHT22;3161;48.794;9.784;2023-05-02T13:51:02;16.70;99.90
6256;DHT22;3161;48.794;9.784;2023-05-02T13:53:30;16.70;99.90
6256;DHT22;3161;48.794;9.784;2023-05-02T13:55:57;16.70;99.90
6256;DHT22;3161;48.794;9.784;2023-05-02T13:58:25;16.70;99.90
6256;DHT22;3161;48.794;9.784;2023-05-02T14:00:52;16.60;99.90
6256;DHT22;3161;48.794;9.784;2023-05-02T14:03:20;16.60;99.90
6256;DHT22;3161;48.794;9.784;2023-05-02T14:05:47;16.60;99.90
6256;DHT22;3161;48.794;9.784;2023-05-02T14:08:15;16.70;99.90
6256;DHT22;3161;48.794;9.784;2023-05-02T14:10:44;16.90;99.90
6256;DHT22;3161;48.794;9.784;2023-05-02T14:13:12;17.50;99.90
6256;DHT22;3161;48.794;9.784;2023-05-02T14:15:39;18.40;99.90
6256;DHT22;3161;48.794;9.784;2023-05-02T14:18:07;20.00;99.90
6256;DHT22;3161;48.794;9.784;2023-05-02T14:20:35;21.00;99.80
6256;DHT22;3161;48.794;9.784;2023-05-02T14:23:03;21.10;99.70
6256;DHT22;3161;48.794;9.784;2023-05-02T14:25:30;21.00;98.80
6256;DHT22;3161;48.794;9.784;2023-05-02T14:27:58;20.90;98.70
6256;DHT22;3161;48.794;9.784;2023-05-02T14:30:26;20.90;99.00
6256;DHT22;3161;48.794;9.784;2023-05-02T14:32:54;20.80;97.80
6256;DHT22;3161;48.794;9.784;2023-05-02T14:35:21;20.70;97.40
6256;DHT22;3161;48.794;9.784;2023-05-02T14:37:49;20.50;96.90
6256;DHT22;3161;48.794;9.784;2023-05-02T14:40:17;20.40;97.10
6256;DHT22;3161;48.794;9.784;2023-05-02T14:42:44;20.40;97.40
6256;DHT22;3161;48.794;9.784;2023-05-02T14:45:12;20.40;96.40
6256;DHT22;3161;48.794;9.784;2023-05-02T14:47:39;20.40;96.60
6256;DHT22;3161;48.794;9.784;2023-05-02T14:50:07;20.40;96.70
6256;DHT22;3161;48.794;9.784;2023-05-02T14:52:35;20.60;96.80
6256;DHT22;3161;48.794;9.784;2023-05-02T14:55:03;20.70;97.50
6256;DHT22;3161;48.794;9.784;2023-05-02T14:57:31;20.70;96.70
6256;DHT22;3161;48.794;9.784;2023-05-02T14:59:59;20.70;95.90
6256;DHT22;3161;48.794;9.784;2023-05-02T15:02:27;20.50;94.00
6256;DHT22;3161;48.794;9.784;2023-05-02T15:04:55;20.40;94.10
6256;DHT22;3161;48.794;9.784;2023-05-02T15:07:22;20.20;94.00
6256;DHT22;3161;48.794;9.784;2023-05-02T15:09:49;20.20;93.60
6256;DHT22;3161;48.794;9.784;2023-05-02T15:12:17;20.20;93.10
6256;DHT22;3161;48.794;9.784;2023-05-02T15:14:45;20.00;92.20
6256;DHT22;3161;48.794;9.784;2023-05-02T15:17:12;19.90;91.50
6256;DHT22;3161;48.794;9.784;2023-05-02T15:19:39;19.70;92.90
6256;DHT22;3161;48.794;9.784;2023-05-02T15:22:07;19.70;94.40
6256;DHT22;3161;48.794;9.784;2023-05-02T15:24:35;19.70;94.60
6256;DHT22;3161;48.794;9.784;2023-05-02T15:27:03;19.80;93.80
6256;DHT22;3161;48.794;9.784;2023-05-02T15:29:31;19.90;94.40
6256;DHT22;3161;48.794;9.784;2023-05-02T15:31:58;19.90;94.60
6256;DHT22;3161;48.794;9.784;2023-05-02T15:34:26;19.90;93.90
6256;DHT22;3161;48.794;9.784;2023-05-02T15:36:54;19.80;94.20
6256;DHT22;3161;48.794;9.784;2023-05-02T15:39:22;19.70;93.80
6256;DHT22;3161;48.794;9.784;2023-05-02T15:41:51;19.60;94.20
6256;DHT22;3161;48.794;9.784;2023-05-02T15:44:19;19.50;94.40
6256;DHT22;3161;48.794;9.784;2023-05-02T15:46:46;19.30;94.00
6256;DHT22;3161;48.794;9.784;2023-05-02T15:49:14;19.20;94.70
6256;DHT22;3161;48.794;9.784;2023-05-02T15:51:42;19.00;93.80
6256;DHT22;3161;48.794;9.784;2023-05-02T15:54:09;18.90;94.40
6256;DHT22;3161;48.794;9.784;2023-05-02T15:56:37;18.70;93.60
6256;DHT22;3161;48.794;9.784;2023-05-02T15:59:04;18.60;94.00
6256;DHT22;3161;48.794;9.784;2023-05-02T16:01:32;18.50;94.30
6256;DHT22;3161;48.794;9.784;2023-05-02T16:03:59;18.40;94.60
6256;DHT22;3161;48.794;9.784;2023-05-02T16:06:27;18.20;94.70
6256;DHT22;3161;48.794;9.784;2023-05-02T16:08:56;18.10;95.20
6256;DHT22;3161;48.794;9.784;2023-05-02T16:11:23;18.00;95.70
6256;DHT22;3161;48.794;9.784;2023-05-02T16:13:51;17.90;96.00
6256;DHT22;3161;48.794;9.784;2023-05-02T16:16:18;17.80;96.50
6256;DHT22;3161;48.794;9.784;2023-05-02T16:18:46;17.70;97.30
6256;DHT22;3161;48.794;9.784;2023-05-02T16:21:13;17.70;97.40
6256;DHT22;3161;48.794;9.784;2023-05-02T16:23:42;17.60;97.10
6256;DHT22;3161;48.794;9.784;2023-05-02T16:26:09;17.60;97.90
6256;DHT22;3161;48.794;9.784;2023-05-02T16:28:37;17.50;97.60
6256;DHT22;3161;48.794;9.784;2023-05-02T16:31:25;17.40;97.80
6256;DHT22;3161;48.794;9.784;2023-05-02T16:33:52;17.40;97.80
6256;DHT22;3161;48.794;9.784;2023-05-02T16:36:20;17.30;98.00
6256;DHT22;3161;48.794;9.784;2023-05-02T16:38:47;17.30;98.20
6256;DHT22;3161;48.794;9.784;2023-05-02T16:41:15;17.20;98.30
6256;DHT22;3161;48.794;9.784;2023-05-02T16:43:42;17.20;98.20
6256;DHT22;3161;48.794;9.784;2023-05-02T16:46:10;17.20;97.90
6256;DHT22;3161;48.794;9.784;2023-05-02T16:48:37;17.10;98.30
6256;DHT22;3161;48.794;9.784;2023-05-02T16:51:05;17.10;98.80
6256;DHT22;3161;48.794;9.784;2023-05-02T16:53:33;17.20;99.10
6256;DHT22;3161;48.794;9.784;2023-05-02T16:56:00;17.10;99.60